Aérodrome :
LOGIN :

S'inscrire | Disclaimer

   EN    FR    IT 

 










Légende :    VFR   VFR Marginal   IFR   IFR Intensif   IFR Très Intensif
Visi : 
Plafond : 
>= 8 km
>= 3000ft
5 à 8 km
1000 à 3000 ft
1500m à 5 km
500 à 1000 ft
800 à 1500m
200 à 500 ft
< 800m
< 200 ft
Symboles :   Orages  Brouillard  Fortes neiges  Fortes précipitations  Vent > 20 kt
SIGMETs :   Divers  Orages  Givrage  Turbulence  Onde Orograph.  Cendres Volcan.






- Altitude de l'aérodrome : 291 ft
- Code IATA : ORY


LFPO - Paris-Orly

DERNIER METAR :
  • 232130Z 10001KT 8000 NSC 13/12 Q1008 NOSIG

METARs EXPIRÉS :
  • 232100Z 08005KT 6000 NSC 14/13 Q1007 NOSIG
  • 232030Z 05008KT 6000 NSC 14/13 Q1007 NOSIG
  • 232000Z 09006KT 060V160 6000 NSC 14/13 Q1008 NOSIG
  • 231930Z 09006KT 060V130 6000 NSC 13/13 Q1008 NOSIG
  • 231900Z 10005KT 060V120 6000 NSC 13/12 Q1008 NOSIG

TAF TAF LFPO
Valide du 23 à 18h jusqu'au 25 à 00h UTC


231700Z 2318/2424 12004KT 6000 SCT008 BKN100
TEMPO 2318/2320 3000 BR BKN006
TEMPO 2320/2406 3000 BR
BECMG 2406/2409 18010KT 9999 BKN020
BECMG 2409/2412 20010G24KT
TEMPO 2414/2418 6000 -RA
BECMG 2418/2421 22007KT
ATIS : +33 1 49 75 65 80



MET'MAP, la Météo Aéronautique d'un coup d'oeil ! - Copyright ORBIFLY Décembre 2007 - Disclaimer

ORBIFLY MET'MAP TEAM :

Programmation & Développement : Alexandra Zaïnal
Conception & Développement : Baudouin d'Aumeries
Co-Programmation & Développement : Marc-Olivier Méhu
Soutien technique & logistique : Manuel Goepfert

Contact : metmap@orbifly.com




SOURCES & CREDITS :

   NOAA